Time;durP1;ratioP1;P1;durP2;ratioP2;P2;SDS_P1;SDS_P2;PMS_P1;PMS_P2;Temp;Humidity;BMP_temperature;BMP_pressure;BME280_temperature;BME280_humidity;BME280_pressure;Samples;Min_cycle;Max_cycle;Signal;HPM_P1;HPM_P2
2021/01/28 00:02:00;;;;;;;88.43;45.97;;;2.00;77.70;;;;;;4983283;28;88073;-74
2021/01/28 00:04:25;;;;;;;82.10;43.50;;;2.00;78.10;;;;;;4981987;28;86949;-75
2021/01/28 00:06:51;;;;;;;79.23;40.43;;;1.90;78.50;;;;;;4984709;28;83849;-74
2021/01/28 00:09:17;;;;;;;80.57;39.53;;;1.80;79.00;;;;;;4983317;28;83746;-74
2021/01/28 00:11:43;;;;;;;75.20;39.60;;;1.80;79.20;;;;;;4982499;28;87846;-74
2021/01/28 00:14:09;;;;;;;70.73;38.27;;;1.80;79.30;;;;;;4982764;28;85004;-74
2021/01/28 00:16:35;;;;;;;72.10;37.50;;;1.80;79.40;;;;;;4982668;28;83750;-75
2021/01/28 00:19:01;;;;;;;69.17;37.77;;;1.70;79.40;;;;;;4983384;28;83364;-74
2021/01/28 00:21:26;;;;;;;81.00;43.30;;;1.70;79.10;;;;;;4965866;28;88097;-75
2021/01/28 00:23:52;;;;;;;85.33;46.70;;;1.70;78.70;;;;;;4983019;28;87404;-74
2021/01/28 00:26:18;;;;;;;75.07;39.70;;;1.80;78.30;;;;;;4982895;28;86755;-74
2021/01/28 00:28:44;;;;;;;69.57;37.77;;;1.80;78.40;;;;;;4982142;28;86664;-75
2021/01/28 00:31:10;;;;;;;75.10;39.60;;;1.80;78.30;;;;;;4982293;28;87577;-74
2021/01/28 00:33:37;;;;;;;74.67;37.03;;;1.80;78.10;;;;;;4983396;28;83544;-74
2021/01/28 00:36:05;;;;;;;67.13;35.70;;;1.80;78.10;;;;;;4982787;28;87258;-74
2021/01/28 00:38:35;;;;;;;58.43;32.60;;;1.80;78.30;;;;;;4981910;28;87175;-75
2021/01/28 00:41:03;;;;;;;57.27;32.20;;;1.80;78.40;;;;;;4965945;28;88011;-74
2021/01/28 00:43:29;;;;;;;65.23;34.63;;;1.80;78.60;;;;;;4981908;28;86891;-75
2021/01/28 00:45:54;;;;;;;54.80;32.27;;;1.70;78.90;;;;;;4982629;28;86961;-74
2021/01/28 00:48:20;;;;;;;57.27;34.07;;;1.70;78.80;;;;;;4982722;28;86840;-74
2021/01/28 00:50:47;;;;;;;61.70;33.20;;;1.70;78.70;;;;;;4981785;28;88428;-74
2021/01/28 00:53:15;;;;;;;52.80;30.27;;;1.70;78.40;;;;;;4983367;28;84097;-74
2021/01/28 00:55:59;;;;;;;57.70;32.93;;;1.70;78.30;;;;;;4980283;28;83298;-74
2021/01/28 00:58:49;;;;;;;58.27;33.53;;;1.70;78.20;;;;;;4981843;28;86909;-74
2021/01/28 01:01:17;;;;;;;65.97;36.83;;;1.70;78.00;;;;;;4982342;28;87581;-74
2021/01/28 01:03:43;;;;;;;66.70;38.17;;;1.70;77.80;;;;;;4981672;28;87570;-75
2021/01/28 01:06:10;;;;;;;69.33;35.83;;;1.80;77.50;;;;;;4982588;28;84346;-74
2021/01/28 01:08:36;;;;;;;81.20;44.63;;;1.80;77.40;;;;;;4982983;28;83804;-74
2021/01/28 01:11:17;;;;;;;82.83;45.27;;;1.80;77.20;;;;;;4967984;28;88385;-74
2021/01/28 01:13:48;;;;;;;82.67;47.10;;;1.70;77.20;;;;;;4981473;28;87079;-74
2021/01/28 01:16:25;;;;;;;77.10;45.00;;;1.70;77.00;;;;;;4982035;28;87680;-75
2021/01/28 01:19:02;;;;;;;79.23;43.93;;;1.70;77.40;;;;;;4982003;28;83962;-74
2021/01/28 01:21:42;;;;;;;76.43;45.30;;;1.70;77.30;;;;;;4981358;28;84619;-74
2021/01/28 01:24:16;;;;;;;76.20;42.47;;;1.60;77.30;;;;;;4982154;28;87714;-74
2021/01/28 01:26:43;;;;;;;76.47;41.23;;;1.60;77.50;;;;;;4965051;28;87087;-74
2021/01/28 01:29:09;;;;;;;81.10;46.03;;;1.60;77.60;;;;;;4982341;28;83883;-74
2021/01/28 01:31:53;;;;;;;74.00;40.93;;;1.50;77.50;;;;;;4982894;28;84166;-75
2021/01/28 01:34:20;;;;;;;72.67;39.37;;;1.50;77.60;;;;;;4965814;28;87004;-74
2021/01/28 01:36:46;;;;;;;69.77;38.87;;;1.50;77.60;;;;;;4981103;28;87772;-74
2021/01/28 01:39:12;;;;;;;74.97;39.90;;;1.50;77.60;;;;;;4981845;28;85629;-74
2021/01/28 01:41:44;;;;;;;67.15;39.63;;;1.50;77.70;;;;;;4982623;28;84971;-74
2021/01/28 01:44:15;;;;;;;71.40;38.77;;;1.50;77.60;;;;;;4981248;28;87874;-74
2021/01/28 01:46:52;;;;;;;64.87;35.10;;;1.40;77.80;;;;;;4981081;28;86075;-74
2021/01/28 01:49:23;;;;;;;55.80;33.03;;;1.40;78.00;;;;;;4981820;28;85483;-74
2021/01/28 01:51:50;;;;;;;62.38;35.92;;;1.40;78.30;;;;;;4981324;28;84151;-74
2021/01/28 01:54:34;;;;;;;64.75;36.42;;;1.40;78.30;;;;;;4965770;28;84330;-75
2021/01/28 01:57:09;;;;;;;68.80;38.10;;;1.40;78.20;;;;;;4965553;28;87616;-74
2021/01/28 01:59:57;;;;;;;78.90;42.63;;;1.40;77.90;;;;;;4980827;28;83904;-75
2021/01/28 02:02:45;;;;;;;71.30;39.10;;;1.40;77.60;;;;;;4978422;28;83349;-74
2021/01/28 02:05:36;;;;;;;69.87;38.23;;;1.40;77.50;;;;;;4978919;28;83201;-75
2021/01/28 02:08:21;;;;;;;67.63;37.33;;;1.40;77.80;;;;;;4979363;28;83287;-74
2021/01/28 02:11:18;;;;;;;65.00;35.30;;;1.40;78.00;;;;;;4981531;28;84335;-74
2021/01/28 02:14:20;;;;;;;59.53;32.50;;;1.30;78.30;;;;;;4977417;28;85887;-74
2021/01/28 02:17:02;;;;;;;61.17;34.17;;;1.30;79.20;;;;;;4980582;28;86908;-74
2021/01/28 02:19:58;;;;;;;52.57;30.97;;;1.20;78.60;;;;;;4982506;28;83631;-75
2021/01/28 02:22:50;;;;;;;50.97;31.13;;;1.20;78.60;;;;;;4965690;28;86562;-75
2021/01/28 02:25:37;;;;;;;53.30;31.87;;;1.30;78.70;;;;;;4984554;28;88051;-74
2021/01/28 02:28:11;;;;;;;51.70;29.43;;;1.20;78.40;;;;;;4987311;28;86187;-74
2021/01/28 02:30:50;;;;;;;53.13;28.37;;;1.30;78.40;;;;;;4982754;28;84363;-74
2021/01/28 02:33:39;;;;;;;50.10;29.37;;;1.20;78.50;;;;;;4980599;28;86491;-74
2021/01/28 02:36:31;;;;;;;42.83;25.63;;;1.20;78.70;;;;;;4982804;28;83729;-74
2021/01/28 02:39:09;;;;;;;43.20;24.60;;;1.20;78.40;;;;;;4981141;28;87484;-74
2021/01/28 02:41:39;;;;;;;47.40;27.67;;;1.20;78.60;;;;;;4980142;28;86260;-75
2021/01/28 02:44:15;;;;;;;44.10;26.57;;;1.30;78.50;;;;;;4981130;28;83512;-74
2021/01/28 02:47:00;;;;;;;48.63;27.77;;;1.30;78.30;;;;;;4982713;28;83598;-74
2021/01/28 02:49:46;;;;;;;46.27;27.13;;;1.30;78.00;;;;;;4980069;28;83946;-74
2021/01/28 02:52:12;;;;;;;46.40;25.73;;;1.30;77.90;;;;;;4981013;28;87427;-74
2021/01/28 02:54:45;;;;;;;38.47;23.73;;;1.30;77.70;;;;;;4964413;28;83512;-74
2021/01/28 02:57:12;;;;;;;48.60;27.73;;;1.30;77.90;;;;;;4980892;28;88149;-74
2021/01/28 02:59:39;;;;;;;46.90;27.97;;;1.30;77.70;;;;;;4963866;28;86979;-75
2021/01/28 03:02:15;;;;;;;42.77;25.13;;;1.30;77.40;;;;;;4980872;28;87152;-74
2021/01/28 03:04:41;;;;;;;37.43;22.83;;;1.40;77.40;;;;;;4981342;28;86833;-75
2021/01/28 03:07:16;;;;;;;37.43;22.90;;;1.40;77.40;;;;;;4969038;28;83225;-74
2021/01/28 03:09:42;;;;;;;32.70;19.33;;;1.50;77.20;;;;;;4984914;28;83517;-75
2021/01/28 03:12:25;;;;;;;32.10;19.70;;;1.50;77.20;;;;;;4984783;28;84002;-74
2021/01/28 03:15:01;;;;;;;33.47;18.40;;;1.50;76.90;;;;;;4968858;28;85739;-74
2021/01/28 03:17:28;;;;;;;28.90;19.17;;;1.50;77.20;;;;;;4983996;28;86082;-74
2021/01/28 03:19:58;;;;;;;29.90;19.73;;;1.60;76.90;;;;;;4983385;28;87963;-75
2021/01/28 03:22:25;;;;;;;31.47;18.87;;;1.60;76.30;;;;;;4983540;28;86973;-74
2021/01/28 03:25:11;;;;;;;33.10;19.43;;;1.60;76.70;;;;;;4970071;28;83406;-74
2021/01/28 03:27:38;;;;;;;30.30;18.27;;;1.60;76.50;;;;;;4983373;28;87212;-75
2021/01/28 03:30:08;;;;;;;29.27;18.53;;;1.70;76.30;;;;;;4984912;28;83988;-74
2021/01/28 03:32:34;;;;;;;30.50;19.37;;;1.70;76.00;;;;;;4967603;28;87533;-74
2021/01/28 03:35:00;;;;;;;28.60;18.10;;;1.70;76.10;;;;;;4983133;28;86654;-74
2021/01/28 03:37:29;;;;;;;30.10;18.53;;;1.70;76.20;;;;;;4967814;28;86596;-74
2021/01/28 03:39:58;;;;;;;25.63;16.80;;;1.80;75.90;;;;;;4984336;28;83802;-74
2021/01/28 03:42:24;;;;;;;28.57;18.07;;;1.80;75.80;;;;;;4983686;28;86855;-74
2021/01/28 03:44:51;;;;;;;26.77;17.77;;;1.90;75.60;;;;;;4966612;28;84030;-74
2021/01/28 03:47:17;;;;;;;29.03;17.93;;;1.90;75.90;;;;;;4983490;28;88013;-74
2021/01/28 03:50:06;;;;;;;26.80;17.20;;;1.90;75.50;;;;;;4969973;28;85313;-74
2021/01/28 03:52:33;;;;;;;27.63;16.33;;;1.90;75.60;;;;;;4983624;28;86683;-74
2021/01/28 03:55:24;;;;;;;30.73;18.67;;;2.00;75.80;;;;;;4970520;28;86621;-74
2021/01/28 03:57:52;;;;;;;27.33;19.27;;;2.10;75.90;;;;;;4982957;28;84379;-74
2021/01/28 04:00:21;;;;;;;37.27;22.73;;;2.10;75.60;;;;;;4983693;28;84124;-74
2021/01/28 04:03:00;;;;;;;28.30;16.97;;;2.20;76.30;;;;;;4967722;28;84448;-74
2021/01/28 04:05:50;;;;;;;26.42;17.42;;;2.20;75.40;;;;;;4969679;28;83670;-74
2021/01/28 04:08:36;;;;;;;28.17;17.87;;;2.20;75.60;;;;;;4963158;28;84321;-74
2021/01/28 04:11:34;;;;;;;25.97;15.80;;;2.20;75.50;;;;;;4980749;28;89259;-74
2021/01/28 04:14:13;;;;;;;30.83;18.70;;;2.20;75.60;;;;;;4966154;28;90809;-74
2021/01/28 04:16:39;;;;;;;23.83;15.30;;;2.10;75.90;;;;;;4980134;28;86886;-75
2021/01/28 04:19:05;;;;;;;23.17;16.50;;;2.20;75.70;;;;;;4980981;28;87945;-74
2021/01/28 04:21:41;;;;;;;24.93;15.23;;;2.10;75.60;;;;;;4980055;28;92454;-75
2021/01/28 04:24:07;;;;;;;23.97;16.07;;;2.20;75.30;;;;;;4981047;28;90247;-74
2021/01/28 04:26:54;;;;;;;24.23;15.27;;;2.20;75.60;;;;;;4980129;28;87704;-74
2021/01/28 04:29:33;;;;;;;27.10;16.73;;;2.10;75.90;;;;;;4981011;28;87081;-74
2021/01/28 04:32:14;;;;;;;23.40;15.87;;;2.10;76.30;;;;;;4980612;28;91119;-74
2021/01/28 04:35:00;;;;;;;25.73;17.10;;;2.10;76.40;;;;;;4978820;28;87445;-74
2021/01/28 04:37:26;;;;;;;23.70;15.40;;;2.10;76.30;;;;;;4964541;28;86997;-74
2021/01/28 04:40:00;;;;;;;21.40;15.37;;;2.10;76.70;;;;;;4980448;28;87980;-74
2021/01/28 04:42:46;;;;;;;20.60;14.57;;;2.10;76.30;;;;;;4980644;28;91337;-74
2021/01/28 04:45:20;;;;;;;20.03;14.13;;;2.20;76.40;;;;;;4980687;28;91589;-74
2021/01/28 04:47:54;;;;;;;24.30;14.30;;;2.20;75.90;;;;;;4979392;28;87768;-75
2021/01/28 04:50:47;;;;;;;22.47;14.87;;;2.30;76.00;;;;;;4971310;28;87159;-75
2021/01/28 04:53:24;;;;;;;21.47;14.23;;;2.30;75.00;;;;;;4964823;28;91644;-74
2021/01/28 04:56:14;;;;;;;22.45;14.35;;;2.40;74.80;;;;;;4981259;28;88855;-74
2021/01/28 04:59:06;;;;;;;21.65;13.32;;;2.40;74.30;;;;;;4965157;28;87114;-74
2021/01/28 05:01:33;;;;;;;21.73;13.17;;;2.40;74.20;;;;;;4964273;28;87993;-74
2021/01/28 05:04:42;;;;;;;26.13;14.23;;;2.40;74.90;;;;;;4977959;28;87955;-74
2021/01/28 05:07:26;;;;;;;20.33;13.97;;;2.40;74.60;;;;;;4980371;28;88293;-74
2021/01/28 05:10:26;;;;;;;22.27;14.63;;;2.40;74.90;;;;;;4940008;28;86851;-74
2021/01/28 05:13:22;;;;;;;21.70;13.50;;;2.40;74.80;;;;;;4977231;28;87011;-74
2021/01/28 05:16:25;;;;;;;25.67;14.10;;;2.40;75.10;;;;;;4979177;28;88902;-74
2021/01/28 05:19:38;;;;;;;19.30;14.20;;;2.50;75.00;;;;;;4964362;28;88317;-74
2021/01/28 05:22:30;;;;;;;20.53;13.07;;;2.40;75.40;;;;;;4981935;28;86940;-74
2021/01/28 05:25:29;;;;;;;23.17;14.10;;;2.50;75.10;;;;;;4980944;28;87555;-74
2021/01/28 05:28:30;;;;;;;21.87;14.57;;;2.50;75.00;;;;;;4957887;28;87517;-74
2021/01/28 05:31:18;;;;;;;23.07;14.10;;;2.50;75.10;;;;;;4981328;28;87115;-75
2021/01/28 05:34:05;;;;;;;24.53;16.17;;;2.50;75.40;;;;;;4979146;28;87213;-74
2021/01/28 05:37:06;;;;;;;20.47;14.10;;;2.50;75.70;;;;;;4971055;28;86318;-75
2021/01/28 05:40:24;;;;;;;21.80;14.68;;;2.60;75.50;;;;;;4977992;28;87536;-75
2021/01/28 05:43:43;;;;;;;25.30;16.63;;;2.60;75.40;;;;;;4980663;28;88407;-74
2021/01/28 05:46:32;;;;;;;23.50;15.23;;;2.70;75.10;;;;;;4979555;28;87906;-74
2021/01/28 05:49:20;;;;;;;25.70;16.40;;;2.70;75.20;;;;;;4979812;28;87120;-74
2021/01/28 05:51:50;;;;;;;22.88;15.32;;;2.70;75.10;;;;;;4977469;28;88029;-75
2021/01/28 05:54:37;;;;;;;23.80;15.73;;;2.70;75.50;;;;;;4978912;28;87349;-74
2021/01/28 05:57:31;;;;;;;22.63;15.03;;;2.80;75.50;;;;;;4979871;28;87411;-74
2021/01/28 06:00:15;;;;;;;25.13;16.43;;;2.80;75.40;;;;;;4981300;28;88507;-75
2021/01/28 06:03:22;;;;;;;22.57;16.13;;;2.90;75.30;;;;;;4969208;28;92208;-75
2021/01/28 06:06:43;;;;;;;24.53;16.23;;;2.90;75.60;;;;;;4979427;28;87091;-74
2021/01/28 06:09:44;;;;;;;26.60;15.87;;;2.90;75.90;;;;;;4978892;28;87173;-74
2021/01/28 06:12:56;;;;;;;24.67;15.43;;;2.90;76.30;;;;;;4978413;28;87165;-74
2021/01/28 06:15:41;;;;;;;23.70;14.68;;;2.80;76.70;;;;;;4972076;28;92437;-74
2021/01/28 06:18:48;;;;;;;26.77;15.90;;;2.80;76.90;;;;;;4979308;28;91225;-74
2021/01/28 06:21:52;;;;;;;24.13;15.97;;;2.80;77.10;;;;;;4979198;28;87108;-74
2021/01/28 06:25:21;;;;;;;24.27;15.50;;;2.90;77.30;;;;;;4978579;28;86911;-75
2021/01/28 06:28:04;;;;;;;29.03;17.50;;;2.90;77.00;;;;;;4987904;28;88910;-74
2021/01/28 06:30:42;;;;;;;23.50;15.33;;;2.90;77.00;;;;;;4980075;28;88067;-74
2021/01/28 06:33:37;;;;;;;21.80;15.02;;;3.00;76.90;;;;;;4979004;28;87364;-74
2021/01/28 06:36:51;;;;;;;23.60;14.60;;;3.00;76.80;;;;;;4981339;28;85977;-74
2021/01/28 06:39:47;;;;;;;18.03;13.17;;;3.10;76.40;;;;;;4978624;28;90471;-74
2021/01/28 06:42:40;;;;;;;17.83;13.70;;;3.10;76.00;;;;;;4977976;28;90315;-74
2021/01/28 06:45:21;;;;;;;17.57;12.90;;;3.10;75.90;;;;;;4961972;28;87790;-75
2021/01/28 06:47:53;;;;;;;20.40;13.77;;;3.10;75.80;;;;;;4978873;28;87238;-74
2021/01/28 06:50:28;;;;;;;19.67;14.20;;;3.20;75.70;;;;;;4963578;28;91795;-74
2021/01/28 06:53:12;;;;;;;20.27;13.43;;;3.20;76.00;;;;;;4977716;28;90405;-75
2021/01/28 06:56:14;;;;;;;22.08;15.43;;;3.20;75.60;;;;;;4975580;28;86840;-74
2021/01/28 06:59:54;;;;;;;17.87;13.20;;;3.30;76.00;;;;;;4956547;28;86928;-75
2021/01/28 07:02:44;;;;;;;19.53;14.17;;;3.20;77.30;;;;;;4990274;28;90982;-75
2021/01/28 07:05:31;;;;;;;20.97;13.77;;;3.20;78.20;;;;;;4995225;28;90593;-74
2021/01/28 07:08:14;;;;;;;24.63;15.37;;;3.10;78.60;;;;;;4976491;28;87003;-75
2021/01/28 07:10:59;;;;;;;21.57;14.83;;;3.10;79.20;;;;;;4975720;28;87089;-75
2021/01/28 07:13:43;;;;;;;22.70;14.47;;;3.10;80.10;;;;;;4979933;28;88262;-74
2021/01/28 07:16:31;;;;;;;;;;;3.20;79.90;;;;;;4975520;28;88903;-75
2021/01/28 07:19:19;;;;;;;22.50;14.18;;;3.20;80.00;;;;;;4980205;28;86881;-75
2021/01/28 07:21:48;;;;;;;24.83;15.23;;;3.20;79.60;;;;;;4961616;28;87780;-74
2021/01/28 07:24:26;;;;;;;17.73;13.87;;;3.20;80.10;;;;;;4979250;28;89086;-75
2021/01/28 07:27:04;;;;;;;18.50;13.10;;;3.20;80.60;;;;;;4979781;28;88282;-74
2021/01/28 07:29:30;;;;;;;19.00;13.50;;;3.20;81.30;;;;;;4962269;28;87403;-74
2021/01/28 07:31:57;;;;;;;18.37;13.20;;;3.20;81.20;;;;;;4961095;28;87740;-75
2021/01/28 07:34:34;;;;;;;20.00;13.20;;;3.20;81.10;;;;;;4976715;28;88405;-75
2021/01/28 07:37:26;;;;;;;22.48;14.95;;;3.20;81.00;;;;;;4977332;28;91500;-75
2021/01/28 07:40:11;;;;;;;21.10;14.37;;;3.20;81.40;;;;;;4974597;28;88267;-74
2021/01/28 07:43:27;;;;;;;21.60;14.47;;;3.20;81.50;;;;;;4950091;28;87470;-75
2021/01/28 07:46:28;;;;;;;26.13;16.00;;;3.20;81.70;;;;;;4964151;28;87258;-73
2021/01/28 07:49:22;;;;;;;23.87;15.33;;;3.30;81.40;;;;;;5000150;28;90545;-75
2021/01/28 07:52:36;;;;;;;23.80;16.27;;;3.30;81.80;;;;;;4968343;28;87227;-75
2021/01/28 07:55:03;;;;;;;20.57;14.07;;;3.30;82.20;;;;;;4953608;28;89732;-75
2021/01/28 07:57:29;;;;;;;23.73;16.00;;;3.40;81.60;;;;;;4982684;28;94644;-75
2021/01/28 08:00:12;;;;;;;22.40;15.57;;;3.40;81.60;;;;;;4974433;28;89838;-76
2021/01/28 08:02:42;;;;;;;21.43;14.60;;;3.40;81.70;;;;;;4984032;28;87252;-75
2021/01/28 08:05:21;;;;;;;26.17;15.57;;;3.40;81.40;;;;;;4965786;28;88006;-75
2021/01/28 08:08:10;;;;;;;23.70;14.90;;;3.50;81.50;;;;;;4993292;28;90819;-74
2021/01/28 08:10:39;;;;;;;19.60;13.70;;;3.50;81.30;;;;;;4974654;28;89385;-75
2021/01/28 08:13:25;;;;;;;22.33;13.73;;;3.50;81.00;;;;;;4978723;28;87554;-75
2021/01/28 08:16:06;;;;;;;19.40;12.23;;;3.60;81.00;;;;;;4979870;28;87385;-75
2021/01/28 08:18:36;;;;;;;20.53;13.40;;;3.50;80.90;;;;;;4978506;28;91738;-75
2021/01/28 08:21:13;;;;;;;19.57;13.50;;;3.60;80.80;;;;;;4978740;28;88091;-75
2021/01/28 08:23:43;;;;;;;19.20;13.13;;;3.60;80.70;;;;;;4979354;28;87032;-75
2021/01/28 08:26:13;;;;;;;20.87;13.93;;;3.60;80.40;;;;;;4998000;28;86639;-75
2021/01/28 08:28:42;;;;;;;23.63;14.57;;;3.70;80.40;;;;;;4988663;28;91242;-75
2021/01/28 08:31:15;;;;;;;31.50;17.43;;;3.70;80.00;;;;;;4978159;28;87604;-75
2021/01/28 08:33:45;;;;;;;26.63;15.43;;;3.70;80.00;;;;;;4979553;28;89603;-75
2021/01/28 08:36:26;;;;;;;29.70;15.43;;;3.80;79.90;;;;;;4961769;28;87770;-75
2021/01/28 08:39:23;;;;;;;24.30;14.90;;;3.80;79.50;;;;;;5009076;28;88741;-75
2021/01/28 08:42:11;;;;;;;21.10;14.33;;;3.80;79.20;;;;;;4992814;28;90733;-75
2021/01/28 08:44:39;;;;;;;58.70;27.73;;;3.80;79.50;;;;;;4974464;28;87252;-75
2021/01/28 08:47:20;;;;;;;22.00;13.63;;;3.80;80.10;;;;;;4976806;28;87856;-74
2021/01/28 08:50:21;;;;;;;22.20;13.57;;;3.80;80.00;;;;;;4994115;28;89067;-75
2021/01/28 08:52:47;;;;;;;24.97;13.70;;;3.80;80.00;;;;;;4988780;28;90827;-75
2021/01/28 08:55:24;;;;;;;34.90;15.60;;;3.70;80.20;;;;;;4980093;28;87465;-75
2021/01/28 08:57:52;;;;;;;22.43;12.90;;;3.70;80.30;;;;;;4980968;28;87581;-75
2021/01/28 09:00:22;;;;;;;20.87;12.43;;;3.70;80.50;;;;;;4960347;28;92883;-75
2021/01/28 09:02:52;;;;;;;16.17;11.33;;;3.70;80.40;;;;;;4987935;28;88882;-75
2021/01/28 09:05:21;;;;;;;20.73;13.83;;;3.70;80.40;;;;;;4998279;28;87208;-75
2021/01/28 09:08:02;;;;;;;29.70;17.17;;;3.80;80.30;;;;;;4980540;28;87897;-75
2021/01/28 09:10:40;;;;;;;24.80;14.50;;;3.80;80.40;;;;;;4997654;28;91619;-75
2021/01/28 09:13:27;;;;;;;21.97;13.83;;;3.80;80.20;;;;;;4997586;28;87967;-75
2021/01/28 09:16:28;;;;;;;21.30;12.23;;;4.00;79.40;;;;;;4998763;28;87445;-75
2021/01/28 09:19:06;;;;;;;27.70;18.38;;;3.90;79.20;;;;;;4961699;28;86796;-75
2021/01/28 09:21:45;;;;;;;25.37;14.30;;;4.00;79.40;;;;;;5025888;28;91780;-75
2021/01/28 09:24:31;;;;;;;25.00;13.37;;;4.00;78.90;;;;;;4996918;28;91260;-75
2021/01/28 09:27:15;;;;;;;21.80;14.27;;;4.10;78.70;;;;;;4998705;28;87798;-75
2021/01/28 09:29:42;;;;;;;23.47;14.63;;;4.10;77.90;;;;;;4997484;28;88296;-75
2021/01/28 09:32:13;;;;;;;26.17;16.03;;;4.20;78.00;;;;;;4996050;28;90182;-75
2021/01/28 09:34:40;;;;;;;46.00;22.03;;;4.20;77.90;;;;;;4980876;28;90722;-74
2021/01/28 09:37:22;;;;;;;53.17;24.67;;;4.20;77.50;;;;;;4998321;28;87584;-75
2021/01/28 09:39:53;;;;;;;68.03;28.57;;;4.30;77.60;;;;;;4986410;28;87454;-75
2021/01/28 09:42:25;;;;;;;33.90;16.90;;;4.40;76.40;;;;;;4976703;28;88741;-75
2021/01/28 09:44:52;;;;;;;73.55;28.20;;;4.50;75.40;;;;;;4983815;28;88170;-76
2021/01/28 09:47:20;;;;;;;32.43;16.27;;;4.50;75.30;;;;;;4982535;28;87448;-77
2021/01/28 09:49:48;;;;;;;44.97;18.67;;;4.50;74.80;;;;;;4979654;28;87188;-76
2021/01/28 09:52:25;;;;;;;50.77;20.40;;;4.70;74.10;;;;;;4976664;28;89425;-76
2021/01/28 09:54:57;;;;;;;77.20;28.70;;;4.80;73.00;;;;;;4976907;28;92930;-76
2021/01/28 09:57:23;;;;;;;78.80;29.52;;;4.80;72.60;;;;;;4976283;28;87443;-76
2021/01/28 09:59:49;;;;;;;62.53;26.97;;;4.90;72.80;;;;;;4978899;28;87903;-75
2021/01/28 10:02:36;;;;;;;53.50;25.10;;;4.90;72.20;;;;;;4971237;28;90982;-75
2021/01/28 10:05:04;;;;;;;32.50;17.43;;;5.00;72.00;;;;;;4996166;28;91278;-75
2021/01/28 10:07:30;;;;;;;28.77;15.30;;;5.00;71.40;;;;;;4997403;28;87049;-75
2021/01/28 10:09:56;;;;;;;15.47;10.23;;;5.00;71.20;;;;;;4981002;28;87935;-75
2021/01/28 10:12:26;;;;;;;13.67;9.40;;;5.00;70.50;;;;;;4988823;28;88353;-76
2021/01/28 10:14:52;;;;;;;13.47;9.63;;;5.00;70.70;;;;;;4978013;28;87378;-75
2021/01/28 10:17:18;;;;;;;16.40;9.77;;;5.00;70.80;;;;;;4977428;28;87933;-75
2021/01/28 10:19:44;;;;;;;13.33;9.50;;;5.00;70.70;;;;;;4979407;28;87131;-75
2021/01/28 10:22:12;;;;;;;13.77;9.90;;;5.00;70.30;;;;;;4960789;28;90616;-75
2021/01/28 10:24:38;;;;;;;13.13;9.87;;;5.10;69.80;;;;;;4960924;28;89556;-75
2021/01/28 10:27:04;;;;;;;12.40;9.50;;;5.10;69.10;;;;;;4979001;28;86977;-75
2021/01/28 10:29:30;;;;;;;11.47;8.17;;;5.10;69.30;;;;;;4978894;28;87090;-75
2021/01/28 10:31:57;;;;;;;14.27;10.13;;;5.00;69.70;;;;;;4978349;28;87626;-74
2021/01/28 10:34:23;;;;;;;14.00;9.23;;;5.10;70.00;;;;;;4978230;28;86516;-75
2021/01/28 10:36:50;;;;;;;12.37;9.00;;;5.20;69.40;;;;;;4979017;28;86861;-76
2021/01/28 10:39:17;;;;;;;12.83;9.67;;;5.20;69.50;;;;;;4988837;28;87202;-74
2021/01/28 10:41:46;;;;;;;15.27;9.87;;;5.30;69.50;;;;;;4998445;28;92737;-74
2021/01/28 10:44:12;;;;;;;19.03;11.17;;;5.30;69.30;;;;;;4974243;28;92975;-75
2021/01/28 10:46:38;;;;;;;14.03;9.57;;;5.40;69.00;;;;;;4982107;28;87333;-75
2021/01/28 10:49:04;;;;;;;15.70;9.97;;;5.50;68.40;;;;;;4998272;28;87571;-75
2021/01/28 10:51:30;;;;;;;15.17;9.27;;;5.50;68.50;;;;;;4998316;28;91860;-74
2021/01/28 10:53:56;;;;;;;30.07;14.03;;;5.50;68.00;;;;;;4963461;28;91285;-74
2021/01/28 10:56:21;;;;;;;22.10;10.97;;;5.60;68.10;;;;;;4960185;28;87427;-75
2021/01/28 10:58:47;;;;;;;20.60;11.83;;;5.60;68.10;;;;;;4978434;28;86482;-75
2021/01/28 11:01:13;;;;;;;20.70;12.03;;;5.60;67.50;;;;;;4978699;28;91343;-75
2021/01/28 11:03:40;;;;;;;16.97;10.37;;;5.60;68.00;;;;;;4961613;28;91314;-75
2021/01/28 11:06:06;;;;;;;14.37;10.70;;;5.70;67.90;;;;;;4960737;28;87984;-76
2021/01/28 11:08:32;;;;;;;15.13;10.03;;;5.70;68.00;;;;;;4977713;28;88377;-75
2021/01/28 11:10:58;;;;;;;13.57;9.00;;;5.70;68.00;;;;;;4980235;28;87422;-75
2021/01/28 11:13:24;;;;;;;11.53;8.73;;;5.70;67.80;;;;;;4980478;28;89239;-75
2021/01/28 11:15:50;;;;;;;16.53;10.33;;;5.70;68.10;;;;;;4980270;28;87915;-75
2021/01/28 11:18:16;;;;;;;12.67;9.53;;;5.70;68.10;;;;;;4986530;28;87396;-75
2021/01/28 11:20:42;;;;;;;13.03;8.40;;;5.70;68.40;;;;;;4977022;28;91975;-75
2021/01/28 11:23:08;;;;;;;15.90;9.60;;;5.60;68.30;;;;;;4979596;28;87575;-76
2021/01/28 11:25:34;;;;;;;11.73;8.40;;;5.60;68.30;;;;;;4982906;28;87434;-75
2021/01/28 11:28:00;;;;;;;13.30;9.73;;;5.70;68.20;;;;;;4982752;28;87594;-75
2021/01/28 11:30:29;;;;;;;14.57;8.33;;;5.70;68.40;;;;;;4994249;28;92672;-75
2021/01/28 11:32:54;;;;;;;12.70;9.00;;;5.70;68.20;;;;;;4980713;28;89476;-75
2021/01/28 11:35:24;;;;;;;11.70;8.70;;;5.70;68.10;;;;;;4974090;28;87718;-75
2021/01/28 11:37:50;;;;;;;15.20;9.40;;;5.70;68.40;;;;;;4979658;28;87557;-74
2021/01/28 11:40:23;;;;;;;11.30;8.43;;;5.60;68.50;;;;;;4978312;28;88296;-75
2021/01/28 11:42:49;;;;;;;14.33;8.93;;;5.60;68.80;;;;;;4976828;28;87494;-76
2021/01/28 11:45:16;;;;;;;11.80;7.87;;;5.60;69.10;;;;;;4979198;28;87633;-74
2021/01/28 11:47:42;;;;;;;10.63;8.03;;;5.60;69.70;;;;;;4978296;28;87573;-75
2021/01/28 11:50:10;;;;;;;11.67;8.27;;;5.70;70.20;;;;;;4979078;28;88744;-75
2021/01/28 11:52:36;;;;;;;15.47;8.40;;;5.70;70.50;;;;;;4977480;28;91213;-75
2021/01/28 11:55:04;;;;;;;13.53;9.13;;;5.70;70.10;;;;;;4961159;28;88496;-75
2021/01/28 11:57:30;;;;;;;12.70;8.83;;;5.70;70.90;;;;;;4961207;28;87231;-75
2021/01/28 11:59:56;;;;;;;13.60;9.07;;;5.50;71.20;;;;;;4979387;28;87772;-75
2021/01/28 12:02:22;;;;;;;13.50;9.60;;;5.50;71.90;;;;;;4978957;28;88364;-75
2021/01/28 12:04:48;;;;;;;13.87;10.20;;;5.50;72.20;;;;;;4978283;28;87344;-75
2021/01/28 12:07:17;;;;;;;14.83;10.13;;;5.50;72.70;;;;;;4977297;28;87068;-75
2021/01/28 12:09:44;;;;;;;16.27;10.87;;;5.50;72.70;;;;;;4959075;28;91900;-75
2021/01/28 12:12:11;;;;;;;13.20;9.70;;;5.50;72.90;;;;;;4968367;28;91168;-76
2021/01/28 12:14:37;;;;;;;12.17;9.60;;;5.50;72.80;;;;;;4979631;28;87969;-75
2021/01/28 12:17:03;;;;;;;12.73;9.40;;;5.60;73.00;;;;;;4978192;28;87121;-75
2021/01/28 12:19:29;;;;;;;13.00;9.07;;;5.50;72.40;;;;;;4978154;28;89072;-74
2021/01/28 12:21:55;;;;;;;12.27;8.73;;;5.50;72.30;;;;;;4978559;28;88492;-74
2021/01/28 12:24:21;;;;;;;14.33;9.50;;;5.60;72.10;;;;;;4976684;28;87570;-74
2021/01/28 12:26:47;;;;;;;17.10;11.60;;;5.60;72.20;;;;;;4961922;28;88435;-74
2021/01/28 12:29:12;;;;;;;12.17;9.63;;;5.60;71.90;;;;;;4977017;28;91556;-74
2021/01/28 12:31:38;;;;;;;15.57;9.63;;;5.70;71.80;;;;;;4961944;28;90721;-74
2021/01/28 12:34:04;;;;;;;17.43;9.80;;;5.70;71.60;;;;;;4978062;28;87194;-75
2021/01/28 12:36:31;;;;;;;15.07;9.40;;;5.70;71.40;;;;;;4978100;28;88597;-74
2021/01/28 12:38:56;;;;;;;12.77;9.70;;;5.70;71.40;;;;;;4978146;28;88693;-77
2021/01/28 12:41:22;;;;;;;15.03;9.27;;;5.70;71.60;;;;;;4977966;28;91198;-76
2021/01/28 12:43:48;;;;;;;14.20;9.60;;;5.70;71.70;;;;;;4976401;28;88403;-75
2021/01/28 12:46:15;;;;;;;13.63;8.53;;;5.70;72.10;;;;;;4977016;28;87222;-76
2021/01/28 12:48:41;;;;;;;12.43;8.77;;;5.70;72.70;;;;;;4979541;28;88268;-73
2021/01/28 12:51:07;;;;;;;12.77;9.07;;;5.70;73.40;;;;;;4960791;28;91308;-74
2021/01/28 12:53:34;;;;;;;13.67;9.97;;;5.70;73.90;;;;;;4979534;28;87015;-74
2021/01/28 12:56:00;;;;;;;16.37;10.10;;;5.70;74.50;;;;;;4976496;28;88117;-74
2021/01/28 12:58:26;;;;;;;12.23;9.37;;;5.70;74.90;;;;;;4977853;28;88367;-74
2021/01/28 13:00:52;;;;;;;12.70;10.13;;;5.70;75.40;;;;;;4978178;28;90170;-74
2021/01/28 13:03:18;;;;;;;13.93;9.60;;;5.70;75.70;;;;;;4976480;28;87345;-74
2021/01/28 13:05:44;;;;;;;15.70;10.90;;;5.70;76.10;;;;;;4977171;28;88220;-75
2021/01/28 13:08:10;;;;;;;16.17;11.23;;;5.70;76.70;;;;;;4975893;28;92608;-75
2021/01/28 13:10:36;;;;;;;15.53;11.87;;;5.70;76.70;;;;;;4977488;28;89023;-74
2021/01/28 13:13:02;;;;;;;17.27;11.47;;;5.80;76.40;;;;;;4996764;28;87662;-74
2021/01/28 13:15:29;;;;;;;15.23;10.90;;;5.80;77.00;;;;;;4960923;28;89166;-74
2021/01/28 13:17:57;;;;;;;14.13;11.17;;;5.80;76.20;;;;;;4978532;28;91447;-74
2021/01/28 13:20:23;;;;;;;16.13;11.63;;;5.80;76.30;;;;;;4980492;28;91478;-74
2021/01/28 13:22:49;;;;;;;17.67;11.93;;;5.80;76.10;;;;;;4984445;28;87267;-74
2021/01/28 13:25:16;;;;;;;17.17;12.13;;;5.80;76.60;;;;;;4979873;28;86386;-74